createdAt,value
2023-05-22T00:02:20.619Z,7.50
2023-05-22T00:04:46.984Z,8.00
2023-05-22T00:07:13.327Z,8.15
2023-05-22T00:09:39.618Z,8.02
2023-05-22T00:12:05.900Z,7.32
2023-05-22T00:14:32.166Z,8.30
2023-05-22T00:16:58.600Z,7.50
2023-05-22T00:19:24.998Z,7.57
2023-05-22T00:21:51.350Z,8.02
2023-05-22T00:24:17.690Z,8.10
2023-05-22T00:26:43.951Z,7.30
2023-05-22T00:29:10.248Z,7.47
2023-05-22T00:31:36.534Z,7.45
2023-05-22T00:34:02.868Z,7.90
2023-05-22T00:36:29.215Z,8.40
2023-05-22T00:38:55.511Z,7.13
2023-05-22T00:41:21.857Z,8.02
2023-05-22T00:43:48.184Z,8.65
2023-05-22T00:46:14.599Z,7.50
2023-05-22T00:48:41.030Z,8.65
2023-05-22T00:51:07.310Z,8.95
2023-05-22T00:53:33.634Z,8.55
2023-05-22T00:55:59.870Z,7.63
2023-05-22T00:58:26.194Z,7.72
2023-05-22T01:00:52.482Z,8.77
2023-05-22T01:03:18.868Z,8.40
2023-05-22T01:05:45.225Z,7.78
2023-05-22T01:08:11.537Z,8.48
2023-05-22T01:10:38.100Z,8.45
2023-05-22T01:13:04.518Z,7.80
2023-05-22T01:15:30.824Z,7.85
2023-05-22T01:17:57.159Z,7.47
2023-05-22T01:20:23.451Z,7.43
2023-05-22T01:22:49.773Z,7.65
2023-05-22T01:25:16.134Z,8.13
2023-05-22T01:27:42.386Z,8.00
2023-05-22T01:30:08.732Z,7.55
2023-05-22T01:32:35.077Z,7.95
2023-05-22T01:35:01.467Z,8.00
2023-05-22T01:37:27.823Z,8.65
2023-05-22T01:39:54.151Z,7.10
2023-05-22T01:42:20.447Z,7.13
2023-05-22T01:44:46.724Z,8.52
2023-05-22T01:47:12.965Z,7.70
2023-05-22T01:49:39.235Z,7.88
2023-05-22T01:52:05.473Z,8.13
2023-05-22T01:54:31.734Z,8.35
2023-05-22T01:56:58.056Z,8.80
2023-05-22T01:59:24.296Z,8.48
2023-05-22T02:01:50.635Z,8.80
2023-05-22T02:04:17.004Z,8.20
2023-05-22T02:06:43.351Z,10.00
2023-05-22T02:09:09.637Z,9.15
2023-05-22T02:11:35.988Z,9.70
2023-05-22T02:14:02.386Z,9.70
2023-05-22T02:16:28.672Z,9.38
2023-05-22T02:18:55.044Z,9.10
2023-05-22T02:21:21.324Z,9.65
2023-05-22T02:23:47.636Z,9.00
2023-05-22T02:26:13.906Z,9.43
2023-05-22T02:28:40.245Z,8.95
2023-05-22T02:31:06.573Z,9.65
2023-05-22T02:33:32.877Z,10.18
2023-05-22T02:35:59.167Z,8.85
2023-05-22T02:38:25.514Z,10.38
2023-05-22T02:40:51.827Z,8.68
2023-05-22T02:43:18.130Z,9.48
2023-05-22T02:45:44.465Z,9.98
2023-05-22T02:48:10.753Z,9.30
2023-05-22T02:50:37.277Z,8.82
2023-05-22T02:53:03.716Z,7.90
2023-05-22T02:55:29.968Z,7.93
2023-05-22T02:57:56.227Z,7.55
2023-05-22T03:00:22.754Z,6.75
2023-05-22T03:02:49.161Z,7.07
2023-05-22T03:05:15.683Z,8.00
2023-05-22T03:07:41.969Z,8.05
2023-05-22T03:10:08.289Z,7.63
2023-05-22T03:12:34.651Z,7.05
2023-05-22T03:15:00.927Z,7.22
2023-05-22T03:17:27.240Z,8.00
2023-05-22T03:19:53.479Z,7.85
2023-05-22T03:22:19.796Z,8.60
2023-05-22T03:24:46.108Z,8.77
2023-05-22T03:27:12.409Z,9.52
2023-05-22T03:29:38.640Z,9.13
2023-05-22T03:32:04.895Z,9.85
2023-05-22T03:34:31.141Z,10.05
2023-05-22T03:36:57.428Z,9.90
2023-05-22T03:39:23.718Z,10.95
2023-05-22T03:41:50.009Z,9.85
2023-05-22T03:44:16.306Z,10.52
2023-05-22T03:46:42.668Z,9.27
2023-05-22T03:49:08.986Z,9.40
2023-05-22T03:51:35.288Z,9.70
2023-05-22T03:54:01.544Z,9.48
2023-05-22T03:56:27.840Z,9.90
2023-05-22T03:58:54.148Z,9.25
2023-05-22T04:01:20.488Z,9.85
2023-05-22T04:03:46.814Z,9.93
2023-05-22T04:06:13.062Z,9.85
2023-05-22T04:08:39.418Z,9.90
2023-05-22T04:11:05.693Z,9.73
2023-05-22T04:13:31.977Z,9.10
2023-05-22T04:15:58.308Z,7.80
2023-05-22T04:18:24.676Z,8.32
2023-05-22T04:20:51.080Z,7.50
2023-05-22T04:23:17.319Z,7.90
2023-05-22T04:25:43.552Z,8.45
2023-05-22T04:28:09.887Z,8.27
2023-05-22T04:30:36.236Z,8.85
2023-05-22T04:33:02.554Z,8.48
2023-05-22T04:35:28.893Z,8.68
2023-05-22T04:37:55.185Z,10.48
2023-05-22T04:40:21.450Z,10.70
2023-05-22T04:42:47.742Z,10.45
2023-05-22T04:45:14.055Z,11.02
2023-05-22T04:47:40.403Z,11.43
2023-05-22T04:50:06.733Z,9.82
2023-05-22T04:52:33.028Z,10.35
2023-05-22T04:55:00.755Z,9.90
2023-05-22T04:57:27.890Z,9.32
2023-05-22T04:59:54.195Z,9.43
2023-05-22T05:02:20.553Z,9.75
2023-05-22T05:04:46.899Z,9.98
2023-05-22T05:07:13.212Z,10.18
2023-05-22T05:09:39.467Z,9.90
2023-05-22T05:12:05.714Z,10.07
2023-05-22T05:14:32.014Z,9.68
2023-05-22T05:16:58.371Z,10.65
2023-05-22T05:19:24.677Z,9.20
2023-05-22T05:21:51.009Z,9.85
2023-05-22T05:24:17.385Z,11.07
2023-05-22T05:26:43.748Z,11.73
2023-05-22T05:29:10.071Z,12.27
2023-05-22T05:31:36.449Z,12.60
2023-05-22T05:34:02.723Z,12.70
2023-05-22T05:36:29.035Z,13.60
2023-05-22T05:38:55.301Z,12.70
2023-05-22T05:41:21.576Z,13.88
2023-05-22T05:43:47.825Z,14.02
2023-05-22T05:46:14.152Z,13.85
2023-05-22T05:48:40.452Z,13.98
2023-05-22T05:51:06.791Z,13.35
2023-05-22T05:53:33.084Z,14.35
2023-05-22T05:55:59.438Z,13.00
2023-05-22T05:58:25.688Z,13.00
2023-05-22T06:00:51.975Z,13.35
2023-05-22T06:03:18.444Z,13.25
2023-05-22T06:05:44.930Z,12.80
2023-05-22T06:08:11.327Z,12.60
2023-05-22T06:10:37.924Z,12.18
2023-05-22T06:13:05.445Z,12.00
2023-05-22T06:15:31.729Z,11.68
2023-05-22T06:17:58.021Z,11.73
2023-05-22T06:20:30.655Z,11.95
2023-05-22T06:22:57.404Z,11.65
2023-05-22T06:25:23.686Z,12.25
2023-05-22T06:27:49.975Z,11.70
2023-05-22T06:30:22.422Z,12.05
2023-05-22T06:32:54.922Z,11.02
2023-05-22T06:35:21.363Z,11.25
2023-05-22T06:37:47.694Z,10.80
2023-05-22T06:40:14.144Z,10.60
2023-05-22T06:42:40.453Z,10.10
2023-05-22T06:45:06.787Z,10.98
2023-05-22T06:47:33.112Z,11.50
2023-05-22T06:49:59.431Z,11.27
2023-05-22T06:52:25.666Z,10.63
2023-05-22T06:54:52.008Z,9.68
2023-05-22T06:57:18.340Z,8.70
2023-05-22T06:59:44.597Z,10.98
2023-05-22T07:02:10.869Z,9.07
2023-05-22T07:04:37.186Z,9.10
2023-05-22T07:07:03.553Z,8.48
2023-05-22T07:09:29.829Z,8.18
2023-05-22T07:11:56.187Z,8.93
2023-05-22T07:14:22.440Z,8.38
2023-05-22T07:16:48.793Z,8.63
2023-05-22T07:19:15.179Z,8.25
2023-05-22T07:21:41.466Z,7.80
2023-05-22T07:24:07.785Z,8.07
2023-05-22T07:26:36.979Z,8.80
2023-05-22T07:29:03.291Z,8.73
2023-05-22T07:31:29.648Z,9.30
2023-05-22T07:33:55.995Z,9.38
2023-05-22T07:36:22.237Z,8.95
2023-05-22T07:38:48.685Z,9.43
2023-05-22T07:41:15.002Z,9.00
2023-05-22T07:43:41.332Z,7.57
2023-05-22T07:46:07.707Z,7.80
2023-05-22T07:48:34.120Z,8.07
2023-05-22T07:51:00.509Z,7.93
2023-05-22T07:53:26.871Z,6.40
2023-05-22T07:55:53.247Z,6.93
2023-05-22T07:58:19.524Z,7.40
2023-05-22T08:00:46.065Z,8.07
2023-05-22T08:03:12.560Z,6.75
2023-05-22T08:05:39.061Z,6.80
2023-05-22T08:08:05.449Z,6.75
2023-05-22T08:10:46.408Z,6.63
2023-05-22T08:13:13.901Z,6.97
2023-05-22T08:15:40.466Z,6.63
2023-05-22T08:18:06.853Z,6.20
2023-05-22T08:20:33.429Z,6.97
2023-05-22T08:22:59.747Z,7.60
2023-05-22T08:25:26.044Z,7.13
2023-05-22T08:27:52.382Z,7.32
2023-05-22T08:30:18.777Z,6.00
2023-05-22T08:32:45.132Z,6.65
2023-05-22T08:35:11.410Z,6.00
2023-05-22T08:37:37.797Z,5.82
2023-05-22T08:40:04.221Z,6.72
2023-05-22T08:42:30.552Z,6.43
2023-05-22T08:44:56.940Z,5.68
2023-05-22T08:47:23.248Z,5.70
2023-05-22T08:49:49.516Z,6.30
2023-05-22T08:52:15.770Z,6.07
2023-05-22T08:54:42.028Z,5.88
2023-05-22T08:57:08.314Z,5.80
2023-05-22T08:59:34.560Z,5.82
2023-05-22T09:02:00.928Z,6.03
2023-05-22T09:04:27.221Z,6.35
2023-05-22T09:06:53.522Z,5.80
2023-05-22T09:09:19.811Z,5.55
2023-05-22T09:11:46.091Z,6.22
2023-05-22T09:14:12.356Z,5.95
2023-05-22T09:16:38.625Z,5.53
2023-05-22T09:19:04.990Z,5.13
2023-05-22T09:21:31.358Z,5.68
2023-05-22T09:23:57.683Z,5.45
2023-05-22T09:26:23.963Z,4.93
2023-05-22T09:28:50.284Z,4.70
2023-05-22T09:31:16.795Z,5.03
2023-05-22T09:33:43.153Z,5.60
2023-05-22T09:36:09.512Z,4.72
2023-05-22T09:38:35.812Z,5.03
2023-05-22T09:41:02.093Z,4.75
2023-05-22T09:43:28.389Z,4.82
2023-05-22T09:45:54.774Z,4.45
2023-05-22T09:48:21.120Z,4.97
2023-05-22T09:50:47.397Z,5.03
2023-05-22T09:53:13.712Z,4.70
2023-05-22T09:55:40.045Z,4.05
2023-05-22T09:58:06.381Z,4.55
2023-05-22T10:00:32.650Z,5.38
2023-05-22T10:02:58.989Z,6.20
2023-05-22T10:05:25.373Z,4.93
2023-05-22T10:07:51.713Z,4.90
2023-05-22T10:10:18.117Z,5.50
2023-05-22T10:12:44.475Z,4.88
2023-05-22T10:15:10.831Z,5.75
2023-05-22T10:17:37.194Z,5.53
2023-05-22T10:20:03.508Z,4.90
2023-05-22T10:22:29.788Z,4.50
2023-05-22T10:24:56.146Z,5.10
2023-05-22T10:27:22.436Z,4.97
2023-05-22T10:29:48.726Z,4.63
2023-05-22T10:32:14.978Z,4.00
2023-05-22T10:34:41.357Z,4.30
2023-05-22T10:37:16.651Z,4.10
2023-05-22T10:39:43.613Z,3.85
2023-05-22T10:42:09.898Z,4.40
2023-05-22T10:44:36.260Z,4.30
2023-05-22T10:47:02.615Z,3.90
2023-05-22T10:49:28.891Z,4.10
2023-05-22T10:51:55.176Z,4.20
2023-05-22T10:54:21.509Z,3.75
2023-05-22T10:56:47.807Z,3.90
2023-05-22T10:59:14.111Z,3.97
2023-05-22T11:01:40.449Z,4.00
2023-05-22T11:04:06.854Z,4.05
2023-05-22T11:06:33.141Z,3.95
2023-05-22T11:08:59.416Z,3.70
2023-05-22T11:11:25.721Z,4.30
2023-05-22T11:13:52.064Z,4.28
2023-05-22T11:16:18.372Z,3.80
2023-05-22T11:18:45.347Z,3.63
2023-05-22T11:21:12.809Z,3.60
2023-05-22T11:23:39.130Z,3.72
2023-05-22T11:26:05.516Z,4.15
2023-05-22T11:28:31.799Z,4.20
2023-05-22T11:30:58.216Z,4.38
2023-05-22T11:33:24.611Z,3.85
2023-05-22T11:35:50.982Z,3.92
2023-05-22T11:38:17.277Z,3.50
2023-05-22T11:40:43.609Z,4.03
2023-05-22T11:43:09.949Z,4.38
2023-05-22T11:45:36.327Z,3.95
2023-05-22T11:48:02.698Z,3.33
2023-05-22T11:50:41.081Z,3.78
2023-05-22T11:53:08.380Z,3.35
2023-05-22T11:55:34.707Z,3.72
2023-05-22T11:58:01.080Z,3.38
2023-05-22T12:00:27.417Z,3.50
2023-05-22T12:02:53.737Z,3.00
2023-05-22T12:05:19.987Z,2.83
2023-05-22T12:07:46.313Z,2.92
2023-05-22T12:10:12.616Z,2.95
2023-05-22T12:12:39.013Z,2.63
2023-05-22T12:15:05.370Z,3.10
2023-05-22T12:17:31.739Z,3.42
2023-05-22T12:19:58.054Z,3.95
2023-05-22T12:22:24.314Z,3.28
2023-05-22T12:24:50.630Z,3.05
2023-05-22T12:27:16.975Z,3.85
2023-05-22T12:29:43.205Z,4.90
2023-05-22T12:32:09.510Z,4.63
2023-05-22T12:34:35.957Z,4.75
2023-05-22T12:37:02.266Z,5.30
2023-05-22T12:39:28.704Z,4.32
2023-05-22T12:41:55.015Z,4.20
2023-05-22T12:44:21.334Z,4.70
2023-05-22T12:46:47.693Z,5.18
2023-05-22T12:49:14.192Z,5.78
2023-05-22T12:51:40.504Z,5.72
2023-05-22T12:54:06.773Z,4.95
2023-05-22T12:56:33.173Z,4.82
2023-05-22T12:58:59.413Z,5.10
2023-05-22T13:01:25.867Z,4.43
2023-05-22T13:03:52.203Z,4.75
2023-05-22T13:06:18.472Z,5.75
2023-05-22T13:08:45.049Z,4.82
2023-05-22T13:11:11.440Z,4.97
2023-05-22T13:13:37.788Z,4.55
2023-05-22T13:16:04.067Z,3.85
2023-05-22T13:18:30.510Z,4.13
2023-05-22T13:20:56.785Z,4.15
2023-05-22T13:23:23.099Z,3.72
2023-05-22T13:25:49.451Z,4.10
2023-05-22T13:28:15.761Z,3.55
2023-05-22T13:30:42.241Z,3.88
2023-05-22T13:33:08.601Z,3.53
2023-05-22T13:35:34.898Z,3.92
2023-05-22T13:38:01.185Z,4.18
2023-05-22T13:40:27.480Z,4.72
2023-05-22T13:42:53.829Z,4.40
2023-05-22T13:45:20.171Z,4.35
2023-05-22T13:47:46.517Z,4.55
2023-05-22T13:50:12.905Z,5.13
2023-05-22T13:52:39.271Z,4.20
2023-05-22T13:55:05.562Z,5.05
2023-05-22T13:57:31.858Z,4.47
2023-05-22T13:59:58.109Z,4.15
2023-05-22T14:02:24.497Z,4.45
2023-05-22T14:04:50.813Z,4.13
2023-05-22T14:07:17.175Z,4.65
2023-05-22T14:09:43.463Z,4.90
2023-05-22T14:12:09.717Z,5.43
2023-05-22T14:14:35.989Z,5.90
2023-05-22T14:17:02.482Z,6.15
2023-05-22T14:19:28.942Z,5.38
2023-05-22T14:21:55.270Z,5.40
2023-05-22T14:24:21.666Z,5.97
2023-05-22T14:26:47.982Z,5.78
2023-05-22T14:29:14.535Z,6.32
2023-05-22T14:31:40.858Z,5.38
2023-05-22T14:34:07.225Z,4.18
2023-05-22T14:36:33.638Z,4.88
2023-05-22T14:38:59.972Z,5.75
2023-05-22T14:41:26.265Z,6.28
2023-05-22T14:43:52.593Z,5.63
2023-05-22T14:46:18.940Z,5.00
2023-05-22T14:48:45.211Z,6.10
2023-05-22T14:51:11.521Z,6.95
2023-05-22T14:53:37.772Z,7.70
2023-05-22T14:56:04.044Z,9.95
2023-05-22T14:58:30.395Z,10.40
2023-05-22T15:00:56.680Z,9.50
2023-05-22T15:03:22.971Z,9.70
2023-05-22T15:05:49.222Z,9.35
2023-05-22T15:08:15.528Z,8.15
2023-05-22T15:10:41.829Z,6.65
2023-05-22T15:13:08.124Z,6.07
2023-05-22T15:15:34.373Z,6.53
2023-05-22T15:18:00.847Z,4.88
2023-05-22T15:20:27.401Z,4.57
2023-05-22T15:22:53.727Z,5.90
2023-05-22T15:25:19.987Z,4.32
2023-05-22T15:27:46.302Z,6.22
2023-05-22T15:30:12.680Z,7.25
2023-05-22T15:32:38.998Z,7.72
2023-05-22T15:35:05.336Z,8.52
2023-05-22T15:37:32.367Z,7.97
2023-05-22T15:39:58.996Z,8.15
2023-05-22T15:42:25.269Z,8.20
2023-05-22T15:44:51.538Z,9.88
2023-05-22T15:47:17.886Z,8.90
2023-05-22T15:49:44.234Z,8.10
2023-05-22T15:52:10.518Z,7.75
2023-05-22T15:54:36.777Z,8.02
2023-05-22T15:57:03.081Z,7.63
2023-05-22T15:59:29.305Z,7.90
2023-05-22T16:01:55.592Z,7.68
2023-05-22T16:04:21.913Z,8.00
2023-05-22T16:06:48.150Z,7.95
2023-05-22T16:09:14.400Z,7.60
2023-05-22T16:11:40.676Z,6.45
2023-05-22T16:14:06.933Z,7.35
2023-05-22T16:16:33.257Z,7.28
2023-05-22T16:18:59.605Z,6.72
2023-05-22T16:21:25.981Z,7.70
2023-05-22T16:23:52.307Z,6.60
2023-05-22T16:26:18.703Z,7.93
2023-05-22T16:28:45.037Z,6.55
2023-05-22T16:31:11.280Z,7.53
2023-05-22T16:33:37.724Z,7.78
2023-05-22T16:36:04.025Z,7.45
2023-05-22T16:38:30.365Z,8.15
2023-05-22T16:40:56.653Z,7.10
2023-05-22T16:43:22.905Z,6.43
2023-05-22T16:45:49.185Z,6.55
2023-05-22T16:48:15.453Z,6.78
2023-05-22T16:50:41.783Z,7.15
2023-05-22T16:53:08.099Z,5.85
2023-05-22T16:55:34.413Z,5.40
2023-05-22T16:58:00.762Z,4.93
2023-05-22T17:00:27.279Z,4.47
2023-05-22T17:02:53.830Z,4.32
2023-05-22T17:05:20.129Z,5.20
2023-05-22T17:07:46.465Z,5.10
2023-05-22T17:10:12.764Z,4.93
2023-05-22T17:12:39.077Z,5.32
2023-05-22T17:15:05.334Z,4.47
2023-05-22T17:17:31.689Z,4.80
2023-05-22T17:19:58.010Z,5.22
2023-05-22T17:22:24.362Z,7.72
2023-05-22T17:24:50.709Z,7.47
2023-05-22T17:27:31.553Z,7.45
2023-05-22T17:30:01.619Z,7.10
2023-05-22T17:32:28.051Z,7.10
2023-05-22T17:34:54.608Z,8.25
2023-05-22T17:37:20.937Z,7.20
2023-05-22T17:39:47.218Z,7.15
2023-05-22T17:42:13.525Z,7.70
2023-05-22T17:44:39.761Z,6.32
2023-05-22T17:47:06.056Z,6.60
2023-05-22T17:49:32.362Z,6.90
2023-05-22T17:51:58.711Z,6.82
2023-05-22T17:54:25.045Z,6.50
2023-05-22T17:56:51.389Z,6.75
2023-05-22T17:59:17.736Z,7.95
2023-05-22T18:01:43.997Z,7.82
2023-05-22T18:04:10.309Z,8.75
2023-05-22T18:06:36.717Z,10.10
2023-05-22T18:09:03.045Z,12.05
2023-05-22T18:11:29.309Z,12.38
2023-05-22T18:13:55.605Z,12.45
2023-05-22T18:16:22.098Z,14.70
2023-05-22T18:18:48.554Z,17.33
2023-05-22T18:21:14.954Z,16.45
2023-05-22T18:23:41.253Z,18.33
2023-05-22T18:26:07.654Z,17.42
2023-05-22T18:28:33.987Z,18.00
2023-05-22T18:31:00.394Z,15.48
2023-05-22T18:33:32.164Z,17.00
2023-05-22T18:35:58.505Z,21.85
2023-05-22T18:38:24.824Z,22.83
2023-05-22T18:40:51.246Z,27.33
2023-05-22T18:43:17.628Z,32.63
2023-05-22T18:45:43.880Z,28.77
2023-05-22T18:48:10.313Z,22.17
2023-05-22T18:50:36.700Z,25.63
2023-05-22T18:53:02.920Z,22.80
2023-05-22T18:55:29.211Z,17.67
2023-05-22T18:57:55.469Z,21.02
2023-05-22T19:00:21.755Z,22.63
2023-05-22T19:02:48.161Z,21.15
2023-05-22T19:05:14.650Z,17.73
2023-05-22T19:07:40.988Z,18.30
2023-05-22T19:10:08.097Z,15.98
2023-05-22T19:12:34.728Z,13.15
2023-05-22T19:15:01.097Z,12.40
2023-05-22T19:17:27.487Z,12.75
2023-05-22T19:19:53.951Z,9.55
2023-05-22T19:22:20.260Z,10.85
2023-05-22T19:24:46.645Z,9.15
2023-05-22T19:27:12.948Z,8.68
2023-05-22T19:29:39.184Z,9.25
2023-05-22T19:32:05.736Z,8.40
2023-05-22T19:34:31.990Z,7.72
2023-05-22T19:36:58.636Z,7.32
2023-05-22T19:39:24.990Z,7.32
2023-05-22T19:41:51.307Z,7.93
2023-05-22T19:44:17.707Z,7.72
2023-05-22T19:46:44.085Z,7.00
2023-05-22T19:49:10.476Z,8.05
2023-05-22T19:51:36.750Z,8.02
2023-05-22T19:54:03.004Z,7.72
2023-05-22T19:56:29.250Z,7.70
2023-05-22T19:58:55.543Z,7.10
2023-05-22T20:01:21.922Z,7.53
2023-05-22T20:03:48.328Z,7.47
2023-05-22T20:06:14.647Z,7.35
2023-05-22T20:08:40.954Z,7.03
2023-05-22T20:11:07.246Z,7.05
2023-05-22T20:13:33.604Z,6.40
2023-05-22T20:15:59.956Z,6.50
2023-05-22T20:18:26.334Z,6.45
2023-05-22T20:20:52.649Z,6.28
2023-05-22T20:23:19.047Z,6.72
2023-05-22T20:25:45.340Z,6.57
2023-05-22T20:28:11.656Z,7.10
2023-05-22T20:30:37.996Z,6.68
2023-05-22T20:33:04.354Z,6.57
2023-05-22T20:35:30.848Z,7.30
2023-05-22T20:37:57.184Z,7.00
2023-05-22T20:40:23.525Z,8.00
2023-05-22T20:42:49.838Z,7.18
2023-05-22T20:45:16.464Z,8.88
2023-05-22T20:47:43.006Z,8.40
2023-05-22T20:50:09.416Z,7.80
2023-05-22T20:52:35.780Z,7.50
2023-05-22T20:55:02.059Z,7.13
2023-05-22T20:57:28.393Z,7.40
2023-05-22T20:59:54.641Z,7.65
2023-05-22T21:02:20.917Z,7.30
2023-05-22T21:04:47.228Z,8.15
2023-05-22T21:07:13.541Z,6.93
2023-05-22T21:09:39.787Z,6.63
2023-05-22T21:12:06.120Z,7.18
2023-05-22T21:14:32.396Z,7.25
2023-05-22T21:16:58.783Z,7.65
2023-05-22T21:19:25.102Z,5.93
2023-05-22T21:21:51.428Z,6.90
2023-05-22T21:24:17.781Z,6.57
2023-05-22T21:26:44.070Z,6.68
2023-05-22T21:29:10.450Z,7.15
2023-05-22T21:31:36.803Z,6.82
2023-05-22T21:34:03.107Z,7.10
2023-05-22T21:36:29.357Z,7.55
2023-05-22T21:38:55.650Z,7.00
2023-05-22T21:41:21.938Z,8.13
2023-05-22T21:43:48.240Z,7.75
2023-05-22T21:46:14.551Z,7.63
2023-05-22T21:48:40.921Z,7.30
2023-05-22T21:51:07.192Z,7.50
2023-05-22T21:53:33.492Z,7.13
2023-05-22T21:55:59.897Z,7.55
2023-05-22T21:58:26.162Z,7.97
2023-05-22T22:00:52.467Z,6.93
2023-05-22T22:03:18.953Z,7.13
2023-05-22T22:05:45.403Z,7.22
2023-05-22T22:08:11.690Z,7.88
2023-05-22T22:10:38.241Z,8.05
2023-05-22T22:13:04.733Z,8.73
2023-05-22T22:15:31.051Z,9.00
2023-05-22T22:17:59.131Z,8.80
2023-05-22T22:20:39.594Z,8.85
2023-05-22T22:23:10.293Z,8.70
2023-05-22T22:25:36.624Z,9.65
2023-05-22T22:28:02.926Z,9.48
2023-05-22T22:30:29.382Z,9.10
2023-05-22T22:32:55.691Z,9.60
2023-05-22T22:35:22.052Z,9.77
2023-05-22T22:37:48.331Z,9.55
2023-05-22T22:40:14.556Z,9.50
2023-05-22T22:42:40.876Z,10.70
2023-05-22T22:45:07.158Z,10.60
2023-05-22T22:47:33.521Z,10.88
2023-05-22T22:49:59.867Z,11.63
2023-05-22T22:52:26.178Z,11.40
2023-05-22T22:54:52.560Z,11.95
2023-05-22T22:57:18.995Z,11.85
2023-05-22T22:59:45.322Z,10.98
2023-05-22T23:02:11.698Z,11.00
2023-05-22T23:04:38.232Z,12.38
2023-05-22T23:07:04.620Z,11.57
2023-05-22T23:09:30.891Z,11.25
2023-05-22T23:11:57.204Z,11.43
2023-05-22T23:14:23.488Z,11.35
2023-05-22T23:16:49.781Z,11.40
2023-05-22T23:19:16.084Z,11.77
2023-05-22T23:21:42.442Z,11.88
2023-05-22T23:24:08.773Z,12.07
2023-05-22T23:26:35.027Z,11.13
2023-05-22T23:29:01.322Z,11.35
2023-05-22T23:31:27.658Z,13.18
2023-05-22T23:33:53.994Z,11.75
2023-05-22T23:36:20.285Z,11.20
2023-05-22T23:38:46.557Z,11.35
2023-05-22T23:41:12.804Z,11.25
2023-05-22T23:43:39.089Z,11.60
2023-05-22T23:46:05.342Z,10.50
2023-05-22T23:48:31.625Z,10.70
2023-05-22T23:50:57.926Z,11.77
2023-05-22T23:53:24.303Z,10.88
2023-05-22T23:55:50.550Z,10.88
2023-05-22T23:58:16.825Z,11.95
